OAL320 URSS-OIII
Flight info
| Callsign | OAL320 |
|---|---|
| Flight time | 1h 56m |
| Altitude | 39000 |
| Route | TABAN DCT OGMOS B143 IDLER M747 LAGAS M54 ADILA N82 ADANO N77 MAGRI B121 RST R660 DEDLA Z725 PAXID |
| Aircraft | A20N/M-SDE2E3FGHIRWXY/LB1 |
Departure
| Time | 2026-04-22 14:54 |
|---|---|
| Airport | Sochi International Airport (URSS) |
Arrival
| Time | 2026-04-22 16:51 |
|---|---|
| Airport | Mehrabad International Airport (OIII) |
| Time | Latitude | Longitude | Altitude | Speed | Heading |
|---|---|---|---|---|---|
| 2026-04-22 14:40 | 43.44840 | 39.94441 | 77 ft | 0 kts | 335° |
| 2026-04-22 14:44 | 43.44839 | 39.94442 | 77 ft | 1 kts | 335° |
| 2026-04-22 14:44 | 43.44832 | 39.94446 | 68 ft | 1 kts | 335° |
| 2026-04-22 14:45 | 43.44825 | 39.94450 | 68 ft | 1 kts | 335° |
| 2026-04-22 14:45 | 43.44818 | 39.94455 | 72 ft | 1 kts | 335° |
| 2026-04-22 14:45 | 43.44811 | 39.94459 | 72 ft | 1 kts | 335° |
| 2026-04-22 14:45 | 43.44804 | 39.94464 | 72 ft | 1 kts | 335° |
| 2026-04-22 14:46 | 43.44797 | 39.94468 | 75 ft | 1 kts | 335° |
| 2026-04-22 14:46 | 43.44790 | 39.94472 | 71 ft | 1 kts | 335° |
| 2026-04-22 14:46 | 43.44783 | 39.94477 | 68 ft | 1 kts | 335° |
| 2026-04-22 14:46 | 43.44776 | 39.94481 | 67 ft | 1 kts | 335° |
| 2026-04-22 14:47 | 43.44770 | 39.94485 | 74 ft | 1 kts | 335° |
| 2026-04-22 14:47 | 43.44763 | 39.94490 | 66 ft | 1 kts | 328° |
| 2026-04-22 14:47 | 43.44756 | 39.94495 | 66 ft | 1 kts | 320° |
| 2026-04-22 14:47 | 43.44751 | 39.94502 | 66 ft | 0 kts | 314° |
| 2026-04-22 14:48 | 43.44753 | 39.94474 | 66 ft | 9 kts | 252° |
| 2026-04-22 14:49 | 43.44692 | 39.94401 | 69 ft | 14 kts | 236° |
| 2026-04-22 14:49 | 43.44645 | 39.94272 | 68 ft | 16 kts | 244° |
| 2026-04-22 14:49 | 43.44593 | 39.94119 | 68 ft | 19 kts | 246° |
| 2026-04-22 14:49 | 43.44534 | 39.93944 | 68 ft | 21 kts | 245° |
| 2026-04-22 14:50 | 43.44467 | 39.93749 | 63 ft | 24 kts | 244° |
| 2026-04-22 14:50 | 43.44396 | 39.93546 | 59 ft | 23 kts | 244° |
| 2026-04-22 14:50 | 43.44325 | 39.93335 | 55 ft | 25 kts | 245° |
| 2026-04-22 14:50 | 43.44253 | 39.93127 | 56 ft | 19 kts | 244° |
| 2026-04-22 14:51 | 43.44197 | 39.92960 | 51 ft | 20 kts | 244° |
| 2026-04-22 14:51 | 43.44135 | 39.92782 | 51 ft | 20 kts | 245° |
| 2026-04-22 14:51 | 43.44092 | 39.92652 | 50 ft | 11 kts | 245° |
| 2026-04-22 14:51 | 43.44059 | 39.92560 | 50 ft | 8 kts | 240° |
| 2026-04-22 14:52 | 43.44038 | 39.92549 | 49 ft | 0 kts | 169° |
| 2026-04-22 14:53 | 43.44021 | 39.92554 | 49 ft | 7 kts | 167° |
| 2026-04-22 14:53 | 43.43963 | 39.92590 | 48 ft | 8 kts | 149° |
| 2026-04-22 14:53 | 43.43962 | 39.92641 | 49 ft | 0 kts | 67° |
| 2026-04-22 14:54 | 43.44033 | 39.92843 | 48 ft | 57 kts | 64° |
| 2026-04-22 14:54 | 43.44299 | 39.93617 | 59 ft | 119 kts | 65° |
| 2026-04-22 14:54 | 43.44714 | 39.94848 | 139 ft | 159 kts | 65° |
| 2026-04-22 14:54 | 43.45142 | 39.96215 | 778 ft | 155 kts | 68° |
| 2026-04-22 14:55 | 43.45527 | 39.97639 | 1326 ft | 162 kts | 69° |
| 2026-04-22 14:55 | 43.45905 | 39.99127 | 1910 ft | 169 kts | 68° |
| 2026-04-22 14:55 | 43.46308 | 40.00723 | 2343 ft | 186 kts | 84° |
| 2026-04-22 14:55 | 43.46055 | 40.02510 | 2808 ft | 202 kts | 121° |
| 2026-04-22 14:56 | 43.44985 | 40.03864 | 3303 ft | 223 kts | 155° |
| 2026-04-22 14:56 | 43.43396 | 40.04225 | 3885 ft | 245 kts | 186° |
| 2026-04-22 14:56 | 43.41767 | 40.03357 | 4591 ft | 260 kts | 216° |
| 2026-04-22 14:56 | 43.40546 | 40.01553 | 5578 ft | 263 kts | 232° |
| 2026-04-22 14:57 | 43.39443 | 39.99490 | 6623 ft | 264 kts | 232° |
| 2026-04-22 14:57 | 43.38291 | 39.97557 | 7592 ft | 265 kts | 228° |
| 2026-04-22 14:57 | 43.37002 | 39.95694 | 8614 ft | 266 kts | 225° |
| 2026-04-22 14:57 | 43.35675 | 39.93961 | 9607 ft | 267 kts | 224° |
| 2026-04-22 14:58 | 43.34288 | 39.92243 | 10472 ft | 273 kts | 223° |
| 2026-04-22 14:58 | 43.32795 | 39.90423 | 10896 ft | 293 kts | 223° |
| 2026-04-22 14:58 | 43.31217 | 39.88507 | 11285 ft | 311 kts | 223° |
| 2026-04-22 14:58 | 43.29586 | 39.86529 | 12139 ft | 313 kts | 223° |
| 2026-04-22 14:59 | 43.27980 | 39.84580 | 13078 ft | 312 kts | 223° |
| 2026-04-22 14:59 | 43.26353 | 39.82605 | 13978 ft | 313 kts | 223° |
| 2026-04-22 14:59 | 43.24712 | 39.80613 | 14686 ft | 317 kts | 223° |
| 2026-04-22 14:59 | 43.23051 | 39.78595 | 15390 ft | 321 kts | 223° |
| 2026-04-22 15:00 | 43.21373 | 39.76559 | 16106 ft | 324 kts | 224° |
| 2026-04-22 15:00 | 43.19675 | 39.74500 | 16831 ft | 327 kts | 224° |
| 2026-04-22 15:00 | 43.17934 | 39.72391 | 17544 ft | 331 kts | 224° |
| 2026-04-22 15:00 | 43.16199 | 39.70290 | 18247 ft | 335 kts | 224° |
| 2026-04-22 15:01 | 43.14442 | 39.68164 | 18855 ft | 338 kts | 224° |
| 2026-04-22 15:01 | 43.12691 | 39.66049 | 19464 ft | 341 kts | 225° |
| 2026-04-22 15:01 | 43.10904 | 39.63891 | 20072 ft | 344 kts | 225° |
| 2026-04-22 15:01 | 43.09000 | 39.61861 | 20658 ft | 352 kts | 217° |
| 2026-04-22 15:02 | 43.06797 | 39.60313 | 21228 ft | 362 kts | 207° |
| 2026-04-22 15:02 | 43.04343 | 39.59355 | 21779 ft | 374 kts | 196° |
| 2026-04-22 15:02 | 43.01750 | 39.58792 | 22320 ft | 379 kts | 195° |
| 2026-04-22 15:02 | 42.99134 | 39.58221 | 22858 ft | 383 kts | 196° |
| 2026-04-22 15:03 | 42.96486 | 39.57635 | 23397 ft | 387 kts | 196° |
| 2026-04-22 15:03 | 42.93814 | 39.57039 | 23877 ft | 391 kts | 196° |
| 2026-04-22 15:03 | 42.91128 | 39.56439 | 24384 ft | 393 kts | 196° |
| 2026-04-22 15:03 | 42.88422 | 39.55835 | 24854 ft | 395 kts | 196° |
| 2026-04-22 15:04 | 42.85698 | 39.55226 | 25315 ft | 398 kts | 196° |
| 2026-04-22 15:04 | 42.82959 | 39.54615 | 25762 ft | 400 kts | 196° |
| 2026-04-22 15:04 | 42.80201 | 39.54001 | 26222 ft | 403 kts | 196° |
| 2026-04-22 15:04 | 42.77426 | 39.53383 | 26653 ft | 405 kts | 196° |
| 2026-04-22 15:05 | 42.74635 | 39.52761 | 27084 ft | 408 kts | 196° |
| 2026-04-22 15:05 | 42.71783 | 39.52441 | 27488 ft | 419 kts | 185° |
| 2026-04-22 15:05 | 42.68850 | 39.53016 | 27858 ft | 434 kts | 171° |
| 2026-04-22 15:05 | 42.65998 | 39.54553 | 28226 ft | 449 kts | 158° |
| 2026-04-22 15:06 | 42.63394 | 39.56996 | 28586 ft | 463 kts | 144° |
| 2026-04-22 15:06 | 42.61180 | 39.60236 | 28929 ft | 475 kts | 131° |
| 2026-04-22 15:06 | 42.59480 | 39.64121 | 29269 ft | 484 kts | 117° |
| 2026-04-22 15:06 | 42.58378 | 39.68471 | 29605 ft | 492 kts | 106° |
| 2026-04-22 15:07 | 42.57646 | 39.73018 | 29936 ft | 495 kts | 104° |
| 2026-04-22 15:07 | 42.56920 | 39.77592 | 30252 ft | 497 kts | 105° |
| 2026-04-22 15:07 | 42.56096 | 39.82150 | 30549 ft | 498 kts | 107° |
| 2026-04-22 15:07 | 42.55181 | 39.86694 | 30816 ft | 501 kts | 108° |
| 2026-04-22 15:08 | 42.54211 | 39.91239 | 31124 ft | 502 kts | 109° |
| 2026-04-22 15:08 | 42.53216 | 39.95774 | 31477 ft | 502 kts | 109° |
| 2026-04-22 15:08 | 42.52212 | 40.00305 | 31853 ft | 502 kts | 109° |
| 2026-04-22 15:08 | 42.51204 | 40.04841 | 32207 ft | 502 kts | 109° |
| 2026-04-22 15:09 | 42.50197 | 40.09371 | 32558 ft | 502 kts | 109° |
| 2026-04-22 15:09 | 42.49188 | 40.13905 | 32914 ft | 502 kts | 109° |
| 2026-04-22 15:09 | 42.48205 | 40.18441 | 33254 ft | 502 kts | 108° |
| 2026-04-22 15:09 | 42.47283 | 40.23008 | 33581 ft | 503 kts | 108° |
| 2026-04-22 15:10 | 42.46379 | 40.27578 | 33916 ft | 502 kts | 108° |
| 2026-04-22 15:10 | 42.45472 | 40.32142 | 34198 ft | 502 kts | 108° |
| 2026-04-22 15:10 | 42.44556 | 40.36698 | 34473 ft | 501 kts | 108° |
| 2026-04-22 15:10 | 42.43633 | 40.41254 | 34747 ft | 501 kts | 108° |
| 2026-04-22 15:11 | 42.42707 | 40.45795 | 35008 ft | 500 kts | 108° |
| 2026-04-22 15:11 | 42.41781 | 40.50326 | 35261 ft | 500 kts | 108° |
| 2026-04-22 15:11 | 42.40849 | 40.54866 | 35515 ft | 500 kts | 108° |
| 2026-04-22 15:11 | 42.39920 | 40.59390 | 35753 ft | 499 kts | 108° |
| 2026-04-22 15:12 | 42.38988 | 40.63911 | 35989 ft | 499 kts | 108° |
| 2026-04-22 15:12 | 42.38055 | 40.68433 | 36223 ft | 499 kts | 108° |
| 2026-04-22 15:12 | 42.37135 | 40.72884 | 36448 ft | 498 kts | 108° |
| 2026-04-22 15:12 | 42.36200 | 40.77392 | 36664 ft | 498 kts | 108° |
| 2026-04-22 15:13 | 42.35263 | 40.81902 | 36881 ft | 497 kts | 108° |
| 2026-04-22 15:13 | 42.34327 | 40.86400 | 37087 ft | 497 kts | 109° |
| 2026-04-22 15:13 | 42.33389 | 40.90897 | 37286 ft | 497 kts | 109° |
| 2026-04-22 15:13 | 42.32451 | 40.95384 | 37484 ft | 497 kts | 109° |
| 2026-04-22 15:14 | 42.31512 | 40.99868 | 37674 ft | 496 kts | 109° |
| 2026-04-22 15:14 | 42.30569 | 41.04357 | 37853 ft | 496 kts | 109° |
| 2026-04-22 15:14 | 42.29627 | 41.08833 | 38029 ft | 496 kts | 109° |
| 2026-04-22 15:14 | 42.28681 | 41.13319 | 38200 ft | 496 kts | 109° |
| 2026-04-22 15:15 | 42.27735 | 41.17799 | 38374 ft | 496 kts | 109° |
| 2026-04-22 15:15 | 42.26788 | 41.22270 | 38526 ft | 495 kts | 109° |
| 2026-04-22 15:15 | 42.25839 | 41.26741 | 38661 ft | 495 kts | 109° |
| 2026-04-22 15:15 | 42.24891 | 41.31201 | 38781 ft | 495 kts | 109° |
| 2026-04-22 15:16 | 42.23939 | 41.35665 | 38890 ft | 495 kts | 109° |
| 2026-04-22 15:16 | 42.22987 | 41.40123 | 38948 ft | 495 kts | 109° |
| 2026-04-22 15:16 | 42.21079 | 41.49028 | 38949 ft | 493 kts | 109° |
| 2026-04-22 15:17 | 42.19166 | 41.57920 | 38949 ft | 494 kts | 109° |
| 2026-04-22 15:17 | 42.17247 | 41.66803 | 38948 ft | 494 kts | 109° |
| 2026-04-22 15:18 | 42.15315 | 41.75681 | 38948 ft | 493 kts | 110° |
| 2026-04-22 15:18 | 42.13321 | 41.84528 | 38950 ft | 494 kts | 110° |
| 2026-04-22 15:19 | 42.11320 | 41.93372 | 38949 ft | 494 kts | 110° |
| 2026-04-22 15:19 | 42.09315 | 42.02222 | 38946 ft | 494 kts | 110° |
| 2026-04-22 15:20 | 42.07306 | 42.11067 | 38946 ft | 494 kts | 110° |
| 2026-04-22 15:20 | 42.05289 | 42.19907 | 38942 ft | 494 kts | 110° |
| 2026-04-22 15:21 | 42.03266 | 42.28741 | 38945 ft | 495 kts | 110° |
| 2026-04-22 15:21 | 42.01245 | 42.37529 | 38946 ft | 494 kts | 110° |
| 2026-04-22 15:22 | 41.99206 | 42.46359 | 38944 ft | 495 kts | 110° |
| 2026-04-22 15:22 | 41.97160 | 42.55190 | 38943 ft | 494 kts | 110° |
| 2026-04-22 15:23 | 41.95114 | 42.63984 | 38951 ft | 493 kts | 110° |
| 2026-04-22 15:23 | 41.93061 | 42.72766 | 38945 ft | 492 kts | 110° |
| 2026-04-22 15:24 | 41.91009 | 42.81524 | 38949 ft | 492 kts | 110° |
| 2026-04-22 15:24 | 41.88956 | 42.90293 | 38950 ft | 493 kts | 110° |
| 2026-04-22 15:25 | 41.86923 | 42.99055 | 38942 ft | 491 kts | 110° |
| 2026-04-22 15:25 | 41.84887 | 43.07787 | 38939 ft | 491 kts | 110° |
| 2026-04-22 15:26 | 41.82854 | 43.16455 | 38946 ft | 490 kts | 110° |
| 2026-04-22 15:26 | 41.80785 | 43.25245 | 38943 ft | 491 kts | 110° |
| 2026-04-22 15:27 | 41.78745 | 43.33876 | 38945 ft | 489 kts | 110° |
| 2026-04-22 15:27 | 41.76682 | 43.42569 | 38934 ft | 489 kts | 110° |
| 2026-04-22 15:28 | 41.75654 | 43.46893 | 38752 ft | 486 kts | 110° |
| 2026-04-22 15:28 | 41.74629 | 43.51194 | 38270 ft | 484 kts | 110° |
| 2026-04-22 15:28 | 41.73605 | 43.55484 | 37612 ft | 483 kts | 110° |
| 2026-04-22 15:28 | 41.72579 | 43.59768 | 36862 ft | 484 kts | 110° |
| 2026-04-22 15:29 | 41.71554 | 43.64041 | 36285 ft | 481 kts | 110° |
| 2026-04-22 15:29 | 41.70530 | 43.68305 | 35613 ft | 481 kts | 110° |
| 2026-04-22 15:29 | 41.69505 | 43.72565 | 35135 ft | 478 kts | 110° |
| 2026-04-22 15:30 | 41.67797 | 43.79642 | 34947 ft | 486 kts | 110° |
| 2026-04-22 15:30 | 41.65357 | 43.89717 | 34944 ft | 485 kts | 110° |
| 2026-04-22 15:31 | 41.63272 | 43.98298 | 34941 ft | 485 kts | 110° |
| 2026-04-22 15:31 | 41.61185 | 44.06854 | 34940 ft | 484 kts | 110° |
| 2026-04-22 15:32 | 41.59080 | 44.15383 | 34934 ft | 482 kts | 113° |
| 2026-04-22 15:32 | 41.57618 | 44.19383 | 34936 ft | 477 kts | 125° |
| 2026-04-22 15:32 | 41.55629 | 44.22876 | 34927 ft | 471 kts | 137° |
| 2026-04-22 15:32 | 41.53204 | 44.25761 | 34916 ft | 464 kts | 149° |
| 2026-04-22 15:33 | 41.50498 | 44.27940 | 34919 ft | 459 kts | 156° |
| 2026-04-22 15:33 | 41.44851 | 44.31951 | 34936 ft | 463 kts | 156° |
| 2026-04-22 15:34 | 41.39173 | 44.36003 | 34937 ft | 462 kts | 156° |
| 2026-04-22 15:34 | 41.33498 | 44.40046 | 34940 ft | 463 kts | 156° |
| 2026-04-22 15:35 | 41.28739 | 44.43429 | 34943 ft | 463 kts | 156° |
| 2026-04-22 15:35 | 41.22132 | 44.48115 | 34940 ft | 463 kts | 156° |
| 2026-04-22 15:36 | 41.16431 | 44.52136 | 34944 ft | 464 kts | 156° |
| 2026-04-22 15:36 | 41.10706 | 44.56103 | 34945 ft | 464 kts | 157° |
| 2026-04-22 15:37 | 41.04982 | 44.60064 | 34946 ft | 464 kts | 157° |
| 2026-04-22 15:37 | 40.99256 | 44.64025 | 34951 ft | 464 kts | 156° |
| 2026-04-22 15:38 | 40.93532 | 44.67982 | 34945 ft | 465 kts | 156° |
| 2026-04-22 15:38 | 40.84976 | 44.73877 | 34945 ft | 464 kts | 157° |
| 2026-04-22 15:39 | 40.79248 | 44.77812 | 34949 ft | 464 kts | 157° |
| 2026-04-22 15:39 | 40.73519 | 44.81740 | 34947 ft | 464 kts | 157° |
| 2026-04-22 15:40 | 40.67782 | 44.85667 | 34950 ft | 464 kts | 157° |
| 2026-04-22 15:40 | 40.63010 | 44.88928 | 34954 ft | 464 kts | 157° |
| 2026-04-22 15:41 | 40.57274 | 44.92840 | 34962 ft | 464 kts | 157° |
| 2026-04-22 15:41 | 40.51691 | 44.97178 | 34964 ft | 470 kts | 147° |
| 2026-04-22 15:42 | 40.46518 | 45.02447 | 34965 ft | 471 kts | 146° |
| 2026-04-22 15:42 | 40.41338 | 45.07702 | 34963 ft | 470 kts | 146° |
| 2026-04-22 15:43 | 40.36151 | 45.12941 | 34967 ft | 471 kts | 146° |
| 2026-04-22 15:43 | 40.30951 | 45.18181 | 34969 ft | 471 kts | 146° |
| 2026-04-22 15:44 | 40.25779 | 45.23383 | 34969 ft | 472 kts | 146° |
| 2026-04-22 15:44 | 40.20576 | 45.28606 | 34973 ft | 472 kts | 146° |
| 2026-04-22 15:45 | 40.15358 | 45.33833 | 34973 ft | 472 kts | 146° |
| 2026-04-22 15:45 | 40.10142 | 45.39049 | 34976 ft | 472 kts | 146° |
| 2026-04-22 15:46 | 40.04924 | 45.44257 | 34981 ft | 472 kts | 146° |
| 2026-04-22 15:46 | 39.99707 | 45.49453 | 34982 ft | 472 kts | 147° |
| 2026-04-22 15:47 | 39.94532 | 45.54737 | 34983 ft | 473 kts | 145° |
| 2026-04-22 15:47 | 39.89377 | 45.60075 | 34991 ft | 473 kts | 145° |
| 2026-04-22 15:48 | 39.84221 | 45.65383 | 34989 ft | 473 kts | 146° |
| 2026-04-22 15:48 | 39.79056 | 45.70676 | 34987 ft | 473 kts | 146° |
| 2026-04-22 15:49 | 39.73888 | 45.75960 | 34992 ft | 473 kts | 146° |
| 2026-04-22 15:49 | 39.68711 | 45.81244 | 34989 ft | 473 kts | 146° |
| 2026-04-22 15:50 | 39.63229 | 45.85861 | 34985 ft | 467 kts | 155° |
| 2026-04-22 15:50 | 39.57549 | 45.89966 | 34982 ft | 468 kts | 155° |
| 2026-04-22 15:51 | 39.51869 | 45.94084 | 34980 ft | 468 kts | 155° |
| 2026-04-22 15:51 | 39.46188 | 45.98199 | 34970 ft | 468 kts | 155° |
| 2026-04-22 15:52 | 39.40502 | 46.02311 | 34972 ft | 468 kts | 155° |
| 2026-04-22 15:52 | 39.34814 | 46.06416 | 34976 ft | 469 kts | 155° |
| 2026-04-22 15:53 | 39.29115 | 46.10520 | 34975 ft | 469 kts | 155° |
| 2026-04-22 15:53 | 39.23412 | 46.14619 | 34964 ft | 470 kts | 155° |
| 2026-04-22 15:54 | 39.17702 | 46.18717 | 34951 ft | 470 kts | 155° |
| 2026-04-22 15:54 | 39.12035 | 46.22775 | 34953 ft | 469 kts | 155° |
| 2026-04-22 15:55 | 39.06291 | 46.26882 | 34955 ft | 469 kts | 155° |
| 2026-04-22 15:55 | 39.00617 | 46.30932 | 34953 ft | 469 kts | 155° |
| 2026-04-22 15:56 | 38.94901 | 46.35008 | 34950 ft | 470 kts | 154° |
| 2026-04-22 15:56 | 38.92195 | 46.37403 | 34944 ft | 476 kts | 143° |
| 2026-04-22 15:56 | 38.89816 | 46.40384 | 34947 ft | 481 kts | 133° |
| 2026-04-22 15:57 | 38.86215 | 46.47662 | 34944 ft | 485 kts | 121° |
| 2026-04-22 15:57 | 38.82987 | 46.55261 | 34939 ft | 485 kts | 121° |
| 2026-04-22 15:58 | 38.79738 | 46.62847 | 34945 ft | 485 kts | 121° |
| 2026-04-22 15:58 | 38.76477 | 46.70432 | 34955 ft | 487 kts | 121° |
| 2026-04-22 15:59 | 38.73213 | 46.78007 | 34946 ft | 484 kts | 121° |
| 2026-04-22 15:59 | 38.69957 | 46.85544 | 34949 ft | 484 kts | 121° |
| 2026-04-22 16:00 | 38.66568 | 46.92981 | 34950 ft | 483 kts | 124° |
| 2026-04-22 16:00 | 38.63016 | 47.00258 | 34949 ft | 482 kts | 124° |
| 2026-04-22 16:01 | 38.59483 | 47.07560 | 34951 ft | 483 kts | 124° |
| 2026-04-22 16:01 | 38.55960 | 47.14877 | 34960 ft | 484 kts | 124° |
| 2026-04-22 16:02 | 38.52448 | 47.22163 | 34944 ft | 481 kts | 124° |
| 2026-04-22 16:02 | 38.48934 | 47.29436 | 34946 ft | 481 kts | 124° |
| 2026-04-22 16:03 | 38.45417 | 47.36695 | 34951 ft | 481 kts | 124° |
| 2026-04-22 16:03 | 38.41895 | 47.43952 | 34952 ft | 481 kts | 124° |
| 2026-04-22 16:04 | 38.38358 | 47.51220 | 34957 ft | 483 kts | 124° |
| 2026-04-22 16:04 | 38.34812 | 47.58494 | 34964 ft | 483 kts | 124° |
| 2026-04-22 16:05 | 38.31263 | 47.65756 | 34974 ft | 483 kts | 124° |
| 2026-04-22 16:05 | 38.27708 | 47.73014 | 34968 ft | 484 kts | 124° |
| 2026-04-22 16:06 | 38.24139 | 47.80283 | 34974 ft | 484 kts | 124° |
| 2026-04-22 16:06 | 38.20573 | 47.87532 | 34963 ft | 483 kts | 124° |
| 2026-04-22 16:07 | 38.17002 | 47.94774 | 34957 ft | 484 kts | 124° |
| 2026-04-22 16:07 | 38.13425 | 48.02011 | 34957 ft | 483 kts | 124° |
| 2026-04-22 16:08 | 38.09870 | 48.09190 | 34954 ft | 484 kts | 124° |
| 2026-04-22 16:08 | 38.06283 | 48.16415 | 34953 ft | 484 kts | 124° |
| 2026-04-22 16:09 | 38.02692 | 48.23635 | 34958 ft | 484 kts | 125° |
| 2026-04-22 16:09 | 37.99093 | 48.30853 | 34958 ft | 485 kts | 125° |
| 2026-04-22 16:10 | 37.95483 | 48.38077 | 34963 ft | 485 kts | 125° |
| 2026-04-22 16:10 | 37.91864 | 48.45302 | 34963 ft | 486 kts | 125° |
| 2026-04-22 16:11 | 37.88240 | 48.52523 | 34960 ft | 486 kts | 125° |
| 2026-04-22 16:11 | 37.84608 | 48.59743 | 34961 ft | 486 kts | 125° |
| 2026-04-22 16:12 | 37.80977 | 48.66948 | 34956 ft | 485 kts | 125° |
| 2026-04-22 16:12 | 37.77347 | 48.74131 | 34953 ft | 485 kts | 125° |
| 2026-04-22 16:13 | 37.73717 | 48.81302 | 34954 ft | 484 kts | 126° |
| 2026-04-22 16:13 | 37.70079 | 48.88471 | 34949 ft | 485 kts | 126° |
| 2026-04-22 16:14 | 37.66424 | 48.95657 | 34955 ft | 486 kts | 126° |
| 2026-04-22 16:14 | 37.62769 | 49.02832 | 34960 ft | 486 kts | 126° |
| 2026-04-22 16:15 | 37.59112 | 49.09999 | 34963 ft | 486 kts | 126° |
| 2026-04-22 16:15 | 37.55455 | 49.17165 | 34965 ft | 486 kts | 126° |
| 2026-04-22 16:16 | 37.51793 | 49.24333 | 34963 ft | 486 kts | 126° |
| 2026-04-22 16:16 | 37.48129 | 49.31489 | 34956 ft | 486 kts | 126° |
| 2026-04-22 16:17 | 37.44462 | 49.38635 | 34967 ft | 486 kts | 126° |
| 2026-04-22 16:17 | 37.40789 | 49.45779 | 34950 ft | 486 kts | 126° |
| 2026-04-22 16:18 | 37.37138 | 49.52863 | 34959 ft | 486 kts | 127° |
| 2026-04-22 16:18 | 37.33314 | 49.59838 | 34953 ft | 482 kts | 134° |
| 2026-04-22 16:19 | 37.28628 | 49.65744 | 34955 ft | 474 kts | 146° |
| 2026-04-22 16:19 | 37.23517 | 49.70956 | 34952 ft | 474 kts | 146° |
| 2026-04-22 16:20 | 37.18406 | 49.76197 | 34961 ft | 474 kts | 146° |
| 2026-04-22 16:20 | 37.13305 | 49.81423 | 34966 ft | 474 kts | 146° |
| 2026-04-22 16:21 | 37.08199 | 49.86643 | 34962 ft | 473 kts | 146° |
| 2026-04-22 16:21 | 37.03094 | 49.91851 | 34970 ft | 474 kts | 146° |
| 2026-04-22 16:22 | 36.95378 | 49.99513 | 34916 ft | 467 kts | 152° |
| 2026-04-22 16:22 | 36.92617 | 50.01620 | 34691 ft | 462 kts | 158° |
| 2026-04-22 16:23 | 36.86795 | 50.04816 | 34229 ft | 455 kts | 165° |
| 2026-04-22 16:23 | 36.83857 | 50.06277 | 33997 ft | 455 kts | 164° |
| 2026-04-22 16:23 | 36.80920 | 50.07746 | 33732 ft | 455 kts | 164° |
| 2026-04-22 16:24 | 36.77979 | 50.09220 | 33457 ft | 456 kts | 164° |
| 2026-04-22 16:24 | 36.72096 | 50.12170 | 32919 ft | 455 kts | 164° |
| 2026-04-22 16:24 | 36.69194 | 50.13623 | 32653 ft | 456 kts | 164° |
| 2026-04-22 16:25 | 36.66250 | 50.15096 | 32397 ft | 456 kts | 164° |
| 2026-04-22 16:25 | 36.60366 | 50.18036 | 31884 ft | 456 kts | 164° |
| 2026-04-22 16:25 | 36.57415 | 50.19509 | 31621 ft | 456 kts | 164° |
| 2026-04-22 16:26 | 36.54468 | 50.20978 | 31376 ft | 457 kts | 164° |
| 2026-04-22 16:26 | 36.51521 | 50.22446 | 31127 ft | 457 kts | 164° |
| 2026-04-22 16:26 | 36.48573 | 50.23914 | 30733 ft | 457 kts | 164° |
| 2026-04-22 16:26 | 36.45622 | 50.25381 | 30138 ft | 456 kts | 164° |
| 2026-04-22 16:27 | 36.42686 | 50.26841 | 29503 ft | 452 kts | 164° |
| 2026-04-22 16:27 | 36.39786 | 50.28284 | 28921 ft | 446 kts | 164° |
| 2026-04-22 16:27 | 36.36923 | 50.29706 | 28350 ft | 440 kts | 164° |
| 2026-04-22 16:27 | 36.35050 | 50.30634 | 27973 ft | 436 kts | 164° |
| 2026-04-22 16:28 | 36.32252 | 50.32027 | 27406 ft | 432 kts | 162° |
| 2026-04-22 16:28 | 36.29622 | 50.33850 | 26845 ft | 436 kts | 149° |
| 2026-04-22 16:28 | 36.27362 | 50.36386 | 26263 ft | 441 kts | 135° |
| 2026-04-22 16:28 | 36.25587 | 50.39494 | 25682 ft | 443 kts | 125° |
| 2026-04-22 16:29 | 36.23974 | 50.42739 | 25092 ft | 441 kts | 125° |
| 2026-04-22 16:29 | 36.22370 | 50.45962 | 24483 ft | 439 kts | 125° |
| 2026-04-22 16:29 | 36.20764 | 50.49175 | 23881 ft | 438 kts | 125° |
| 2026-04-22 16:29 | 36.19161 | 50.52372 | 23252 ft | 436 kts | 124° |
| 2026-04-22 16:30 | 36.18106 | 50.54474 | 22883 ft | 433 kts | 124° |
| 2026-04-22 16:30 | 36.15992 | 50.58678 | 22101 ft | 427 kts | 124° |
| 2026-04-22 16:30 | 36.14430 | 50.61781 | 21523 ft | 423 kts | 125° |
| 2026-04-22 16:30 | 36.12879 | 50.64858 | 20943 ft | 420 kts | 125° |
| 2026-04-22 16:31 | 36.11339 | 50.67909 | 20352 ft | 417 kts | 125° |
| 2026-04-22 16:31 | 36.09811 | 50.70934 | 19775 ft | 413 kts | 125° |
| 2026-04-22 16:31 | 36.08292 | 50.73942 | 19162 ft | 412 kts | 125° |
| 2026-04-22 16:31 | 36.06781 | 50.76928 | 18575 ft | 409 kts | 125° |
| 2026-04-22 16:32 | 36.05275 | 50.79901 | 17991 ft | 406 kts | 125° |
| 2026-04-22 16:32 | 36.03783 | 50.82847 | 17417 ft | 402 kts | 125° |
| 2026-04-22 16:32 | 36.02309 | 50.85753 | 16849 ft | 397 kts | 125° |
| 2026-04-22 16:32 | 36.00847 | 50.88633 | 16298 ft | 393 kts | 124° |
| 2026-04-22 16:33 | 35.99401 | 50.91480 | 15743 ft | 390 kts | 124° |
| 2026-04-22 16:33 | 35.97964 | 50.94308 | 15189 ft | 387 kts | 124° |
| 2026-04-22 16:33 | 35.96536 | 50.97111 | 14607 ft | 385 kts | 124° |
| 2026-04-22 16:33 | 35.95118 | 50.99894 | 14069 ft | 381 kts | 123° |
| 2026-04-22 16:34 | 35.93727 | 51.02608 | 13544 ft | 378 kts | 123° |
| 2026-04-22 16:34 | 35.92333 | 51.05334 | 13041 ft | 373 kts | 123° |
| 2026-04-22 16:34 | 35.90966 | 51.08002 | 12766 ft | 364 kts | 123° |
| 2026-04-22 16:34 | 35.89611 | 51.10646 | 12508 ft | 365 kts | 123° |
| 2026-04-22 16:35 | 35.88250 | 51.13302 | 12028 ft | 368 kts | 123° |
| 2026-04-22 16:35 | 35.86884 | 51.15970 | 11477 ft | 368 kts | 123° |
| 2026-04-22 16:35 | 35.85533 | 51.18609 | 11125 ft | 359 kts | 123° |
| 2026-04-22 16:35 | 35.84227 | 51.21163 | 11075 ft | 350 kts | 123° |
| 2026-04-22 16:36 | 35.82902 | 51.23747 | 11067 ft | 360 kts | 122° |
| 2026-04-22 16:36 | 35.81461 | 51.26241 | 11042 ft | 354 kts | 135° |
| 2026-04-22 16:36 | 35.79744 | 51.28353 | 10944 ft | 344 kts | 128° |
| 2026-04-22 16:36 | 35.78480 | 51.30795 | 10838 ft | 332 kts | 121° |
| 2026-04-22 16:37 | 35.77332 | 51.33204 | 10719 ft | 320 kts | 121° |
| 2026-04-22 16:37 | 35.76231 | 51.35519 | 10597 ft | 307 kts | 121° |
| 2026-04-22 16:37 | 35.75175 | 51.37747 | 10498 ft | 295 kts | 121° |
| 2026-04-22 16:37 | 35.74162 | 51.39887 | 10386 ft | 283 kts | 121° |
| 2026-04-22 16:38 | 35.73192 | 51.41942 | 10281 ft | 272 kts | 121° |
| 2026-04-22 16:38 | 35.72265 | 51.43915 | 10134 ft | 263 kts | 121° |
| 2026-04-22 16:38 | 35.71353 | 51.45854 | 9849 ft | 261 kts | 121° |
| 2026-04-22 16:38 | 35.70440 | 51.47776 | 9510 ft | 260 kts | 121° |
| 2026-04-22 16:39 | 35.69528 | 51.49685 | 9193 ft | 258 kts | 121° |
| 2026-04-22 16:39 | 35.68627 | 51.51569 | 9018 ft | 254 kts | 121° |
| 2026-04-22 16:39 | 35.67724 | 51.53466 | 9005 ft | 259 kts | 121° |
| 2026-04-22 16:39 | 35.66820 | 51.55366 | 9002 ft | 257 kts | 121° |
| 2026-04-22 16:40 | 35.65916 | 51.57267 | 8996 ft | 258 kts | 121° |
| 2026-04-22 16:40 | 35.65012 | 51.59175 | 8991 ft | 258 kts | 121° |
| 2026-04-22 16:40 | 35.63214 | 51.62983 | 8985 ft | 257 kts | 121° |
| 2026-04-22 16:41 | 35.62315 | 51.64894 | 8988 ft | 259 kts | 121° |
| 2026-04-22 16:41 | 35.61407 | 51.66804 | 8984 ft | 261 kts | 121° |
| 2026-04-22 16:41 | 35.60498 | 51.68704 | 8987 ft | 258 kts | 121° |
| 2026-04-22 16:41 | 35.59605 | 51.70597 | 8982 ft | 250 kts | 121° |
| 2026-04-22 16:42 | 35.58767 | 51.72383 | 8979 ft | 232 kts | 123° |
| 2026-04-22 16:42 | 35.57635 | 51.73738 | 8991 ft | 231 kts | 156° |
| 2026-04-22 16:42 | 35.56131 | 51.74152 | 8978 ft | 222 kts | 190° |
| 2026-04-22 16:42 | 35.54731 | 51.73502 | 8979 ft | 210 kts | 225° |
| 2026-04-22 16:43 | 35.53953 | 51.72079 | 8981 ft | 204 kts | 259° |
| 2026-04-22 16:43 | 35.54018 | 51.70396 | 8978 ft | 199 kts | 293° |
| 2026-04-22 16:43 | 35.54838 | 51.69020 | 8982 ft | 204 kts | 311° |
| 2026-04-22 16:43 | 35.55805 | 51.67759 | 8983 ft | 203 kts | 311° |
| 2026-04-22 16:44 | 35.56772 | 51.66501 | 8983 ft | 201 kts | 311° |
| 2026-04-22 16:44 | 35.57723 | 51.65254 | 8858 ft | 200 kts | 311° |
| 2026-04-22 16:44 | 35.58670 | 51.64000 | 8539 ft | 201 kts | 310° |
| 2026-04-22 16:44 | 35.59598 | 51.62715 | 8171 ft | 201 kts | 306° |
| 2026-04-22 16:45 | 35.60329 | 51.61276 | 8019 ft | 199 kts | 295° |
| 2026-04-22 16:45 | 35.60882 | 51.59704 | 7986 ft | 200 kts | 291° |
| 2026-04-22 16:45 | 35.61348 | 51.58098 | 7993 ft | 200 kts | 289° |
| 2026-04-22 16:45 | 35.61807 | 51.56493 | 7976 ft | 198 kts | 289° |
| 2026-04-22 16:46 | 35.62268 | 51.54885 | 7793 ft | 200 kts | 289° |
| 2026-04-22 16:46 | 35.62718 | 51.53316 | 7541 ft | 186 kts | 290° |
| 2026-04-22 16:46 | 35.63140 | 51.51845 | 7265 ft | 181 kts | 290° |
| 2026-04-22 16:46 | 35.63558 | 51.50392 | 6990 ft | 179 kts | 290° |
| 2026-04-22 16:47 | 35.63967 | 51.48967 | 6738 ft | 172 kts | 290° |
| 2026-04-22 16:47 | 35.64356 | 51.47614 | 6506 ft | 167 kts | 290° |
| 2026-04-22 16:47 | 35.64743 | 51.46270 | 6269 ft | 166 kts | 290° |
| 2026-04-22 16:47 | 35.65114 | 51.44979 | 6027 ft | 154 kts | 291° |
| 2026-04-22 16:48 | 35.65462 | 51.43769 | 5819 ft | 150 kts | 290° |
| 2026-04-22 16:48 | 35.65813 | 51.42551 | 5606 ft | 150 kts | 290° |
| 2026-04-22 16:48 | 35.66158 | 51.41355 | 5393 ft | 147 kts | 290° |
| 2026-04-22 16:48 | 35.66489 | 51.40206 | 5178 ft | 136 kts | 290° |
| 2026-04-22 16:49 | 35.66806 | 51.39107 | 4978 ft | 138 kts | 290° |
| 2026-04-22 16:49 | 35.67126 | 51.37997 | 4762 ft | 137 kts | 289° |
| 2026-04-22 16:49 | 35.67442 | 51.36902 | 4556 ft | 136 kts | 289° |
| 2026-04-22 16:49 | 35.67756 | 51.35814 | 4360 ft | 133 kts | 289° |
| 2026-04-22 16:50 | 35.68065 | 51.34744 | 4177 ft | 134 kts | 290° |
| 2026-04-22 16:50 | 35.68380 | 51.33642 | 3995 ft | 137 kts | 289° |
| 2026-04-22 16:50 | 35.68682 | 51.32570 | 3890 ft | 117 kts | 290° |
| 2026-04-22 16:50 | 35.68894 | 51.31863 | 3924 ft | 59 kts | 289° |
| 2026-04-22 16:51 | 35.68980 | 51.31558 | 3935 ft | 30 kts | 292° |
| 2026-04-22 16:51 | 35.69060 | 51.31477 | 3935 ft | 9 kts | 17° |
| 2026-04-22 16:51 | 35.69102 | 51.31472 | 3934 ft | 3 kts | 301° |
| 2026-04-22 16:51 | 35.69103 | 51.31471 | 3934 ft | 0 kts | 299° |
| 2026-04-22 16:52 | 35.69110 | 51.31467 | 3935 ft | 2 kts | 338° |
| 2026-04-22 16:52 | 35.69111 | 51.31497 | 3935 ft | 8 kts | 133° |
| 2026-04-22 16:53 | 35.69055 | 51.31631 | 3931 ft | 25 kts | 111° |
| 2026-04-22 16:53 | 35.68990 | 51.31842 | 3928 ft | 23 kts | 110° |
| 2026-04-22 16:53 | 35.68972 | 51.31951 | 3924 ft | 11 kts | 71° |
| 2026-04-22 16:53 | 35.69023 | 51.31999 | 3921 ft | 10 kts | 34° |
| 2026-04-22 16:54 | 35.69061 | 51.32050 | 3920 ft | 4 kts | 55° |
| 2026-04-22 16:54 | 35.69062 | 51.32053 | 3919 ft | 0 kts | 55° |